logo
Search for airport 
image banner adimage banner adimage banner ad
image banner ad

LKKT - Klatovy

Located in Klatovy, Czech Republic

ICAO - LKKT, IATA -

Data provided by Airmate  

General information

Coordinates: N49°25'6" E13°19'19"
Elevation is 1299 feet MSL.
 
View others Airports in Plzen Region

Operational data

Special qualification required
Current time UTC:
Current local time:
Weather at : LKLN - Plzen/Line ( 29 km )
METAR: LKLN 200700Z AUTO 28005KT 220V340 9999 // FEW015 SCT024 OVC036 04/02 Q1009
View NOTAMs / SUP AIP / TFR affecting this airport [VIEW]
Communications frequencies: [VIEW]

Runways:

RWY identifierQFULength (ft)Width (ft)SurfaceLDA (ft)
09L2690246GRASS
27R2690246GRASS
09R269082GRASS
27L269082GRASS

Airport contact information

Address: Klatovy Czech Republic

Other aviation service providers

Flight schools

Aerocentrum

Aerocentrum
info@aerocentrum.cz+420277000709

Aviation club (not for profit)

Aeroklub Klatovy

Aeroklub Klatovy
info@lkkt.cz+420376310355

Satellite view of LKKT